Time;durP1;ratioP1;P1;durP2;ratioP2;P2;SDS_P1;SDS_P2;PMS_P1;PMS_P2;Temp;Humidity;BMP_temperature;BMP_pressure;BME280_temperature;BME280_humidity;BME280_pressure;Samples;Min_cycle;Max_cycle;Signal;HPM_P1;HPM_P2
2024/03/19 00:00:40;;;;;;;10.13;9.37;;;;;;;;;;5054105;28;20373;-81
2024/03/19 00:03:07;;;;;;;10.38;9.63;;;;;;;;;;5054711;28;20874;-81
2024/03/19 00:05:33;;;;;;;8.90;8.20;;;;;;;;;;5054314;28;20381;-81
2024/03/19 00:07:59;;;;;;;9.43;8.80;;;;;;;;;;5054118;28;20388;-81
2024/03/19 00:10:25;;;;;;;9.27;8.57;;;;;;;;;;5054040;28;20385;-81
2024/03/19 00:12:51;;;;;;;9.25;8.55;;;;;;;;;;5054295;28;20386;-81
2024/03/19 00:15:17;;;;;;;8.80;8.20;;;;;;;;;;5054176;28;20421;-81
2024/03/19 00:17:43;;;;;;;9.13;8.52;;;;;;;;;;5043841;28;20384;-81
2024/03/19 00:20:10;;;;;;;8.95;8.35;;;;;;;;;;5054143;28;20378;-81
2024/03/19 00:22:36;;;;;;;8.55;7.95;;;;;;;;;;5053698;28;20875;-81
2024/03/19 00:25:05;;;;;;;8.80;8.15;;;;;;;;;;5046642;28;20851;-81
2024/03/19 00:27:32;;;;;;;8.77;8.07;;;;;;;;;;5053861;28;20385;-81
2024/03/19 00:29:58;;;;;;;9.65;8.85;;;;;;;;;;5053874;28;20377;-81
2024/03/19 00:32:31;;;;;;;8.45;7.85;;;;;;;;;;5107514;27;20707;-82
2024/03/19 00:34:57;;;;;;;11.23;10.20;;;;;;;;;;5093646;28;20451;-82
2024/03/19 00:37:23;;;;;;;11.05;10.07;;;;;;;;;;5091738;28;20386;-82
2024/03/19 00:39:49;;;;;;;10.48;9.48;;;;;;;;;;5090880;28;20403;-82
2024/03/19 00:42:15;;;;;;;9.27;8.50;;;;;;;;;;5091309;28;20714;-82
2024/03/19 00:44:41;;;;;;;9.40;8.63;;;;;;;;;;5091015;28;20391;-82
2024/03/19 00:47:08;;;;;;;10.00;9.10;;;;;;;;;;5096626;28;20369;-82
2024/03/19 00:49:34;;;;;;;9.43;8.73;;;;;;;;;;5099917;28;20375;-82
2024/03/19 00:52:00;;;;;;;9.02;8.32;;;;;;;;;;5090508;28;20403;-82
2024/03/19 00:54:26;;;;;;;9.10;8.50;;;;;;;;;;5091028;28;20375;-82
2024/03/19 00:56:52;;;;;;;8.88;7.97;;;;;;;;;;5090909;28;20764;-82
2024/03/19 00:59:18;;;;;;;9.17;8.57;;;;;;;;;;5091290;28;20478;-82
2024/03/19 01:01:45;;;;;;;9.77;9.07;;;;;;;;;;5089913;28;20418;-82
2024/03/19 01:04:11;;;;;;;8.88;8.27;;;;;;;;;;5090738;28;20386;-82
2024/03/19 01:06:37;;;;;;;9.45;8.75;;;;;;;;;;5090549;28;20544;-82
2024/03/19 01:09:12;;;;;;;8.77;8.18;;;;;;;;;;5090281;28;20414;-82
2024/03/19 01:11:39;;;;;;;9.30;8.60;;;;;;;;;;5090460;28;21035;-82
2024/03/19 01:14:05;;;;;;;9.07;8.38;;;;;;;;;;5090554;28;20778;-82
2024/03/19 01:16:33;;;;;;;9.40;8.70;;;;;;;;;;5090700;28;20371;-82
2024/03/19 01:18:59;;;;;;;9.00;8.30;;;;;;;;;;5090037;28;20375;-82
2024/03/19 01:21:25;;;;;;;9.05;8.32;;;;;;;;;;5090470;28;20382;-82
2024/03/19 01:23:51;;;;;;;8.30;7.60;;;;;;;;;;5090549;28;20387;-82
2024/03/19 01:26:18;;;;;;;8.93;8.32;;;;;;;;;;5090469;28;20375;-82
2024/03/19 01:28:44;;;;;;;9.10;8.40;;;;;;;;;;5090326;28;20379;-82
2024/03/19 01:31:10;;;;;;;8.48;7.90;;;;;;;;;;5099402;28;20406;-82
2024/03/19 01:33:36;;;;;;;9.97;9.27;;;;;;;;;;5096629;28;20373;-82
2024/03/19 01:36:02;;;;;;;11.40;10.50;;;;;;;;;;5110441;28;20435;-82
2024/03/19 01:38:28;;;;;;;12.02;11.07;;;;;;;;;;5110420;28;20404;-82
2024/03/19 01:40:54;;;;;;;11.55;10.65;;;;;;;;;;5110357;28;20434;-82
2024/03/19 01:43:20;;;;;;;12.73;11.63;;;;;;;;;;5099991;28;20378;-82
2024/03/19 01:46:06;;;;;;;11.57;10.67;;;;;;;;;;5096582;28;20501;-82
2024/03/19 01:48:32;;;;;;;11.15;10.25;;;;;;;;;;5096393;28;20382;-82
2024/03/19 01:50:59;;;;;;;11.50;10.60;;;;;;;;;;5096555;28;20441;-82
2024/03/19 01:53:26;;;;;;;10.57;9.77;;;;;;;;;;5096799;28;20378;-82
2024/03/19 01:55:52;;;;;;;10.98;10.18;;;;;;;;;;5097034;28;20519;-82
2024/03/19 01:58:18;;;;;;;11.15;10.32;;;;;;;;;;5096946;28;20392;-82
2024/03/19 02:00:44;;;;;;;11.55;10.65;;;;;;;;;;5102038;28;20380;-82
2024/03/19 02:03:13;;;;;;;11.23;10.38;;;;;;;;;;5104898;28;20469;-82
2024/03/19 02:05:39;;;;;;;12.68;11.63;;;;;;;;;;5096229;28;20394;-82
2024/03/19 02:08:05;;;;;;;11.48;10.68;;;;;;;;;;5096551;28;20374;-82
2024/03/19 02:10:32;;;;;;;10.80;10.00;;;;;;;;;;5095784;28;20752;-82
2024/03/19 02:12:58;;;;;;;11.63;10.73;;;;;;;;;;5096787;28;20378;-82
2024/03/19 02:15:24;;;;;;;11.65;10.65;;;;;;;;;;5096024;28;20386;-82
2024/03/19 02:17:51;;;;;;;11.27;10.40;;;;;;;;;;5095890;28;20443;-82
2024/03/19 02:20:17;;;;;;;11.32;10.35;;;;;;;;;;5095975;28;20382;-82
2024/03/19 02:22:44;;;;;;;11.63;10.73;;;;;;;;;;5095991;28;20385;-82
2024/03/19 02:25:10;;;;;;;11.50;10.60;;;;;;;;;;5095466;28;20709;-82
2024/03/19 02:27:37;;;;;;;10.98;10.15;;;;;;;;;;5095780;28;20377;-82
2024/03/19 02:30:03;;;;;;;11.80;10.90;;;;;;;;;;5095734;28;20463;-82
2024/03/19 02:32:29;;;;;;;12.63;11.63;;;;;;;;;;5096659;28;20818;-82
2024/03/19 02:34:55;;;;;;;11.45;10.55;;;;;;;;;;5099092;28;20387;-82
2024/03/19 02:37:21;;;;;;;11.20;10.30;;;;;;;;;;5098216;28;20415;-82
2024/03/19 02:39:47;;;;;;;12.30;11.30;;;;;;;;;;5101692;28;20378;-82
2024/03/19 02:42:13;;;;;;;12.77;11.70;;;;;;;;;;5099433;28;20408;-82
2024/03/19 02:44:39;;;;;;;13.00;12.00;;;;;;;;;;5095951;28;20469;-82
2024/03/19 02:47:05;;;;;;;12.63;11.63;;;;;;;;;;5095973;28;20465;-82
2024/03/19 02:49:31;;;;;;;11.85;10.95;;;;;;;;;;5095942;28;20370;-82
2024/03/19 02:51:57;;;;;;;12.50;11.47;;;;;;;;;;5077258;28;20406;-82
2024/03/19 02:54:23;;;;;;;11.63;10.73;;;;;;;;;;5076657;28;20425;-82
2024/03/19 02:56:49;;;;;;;11.55;10.65;;;;;;;;;;5096548;28;20374;-82
2024/03/19 02:59:15;;;;;;;12.53;11.53;;;;;;;;;;5108723;28;20732;-82
2024/03/19 03:01:41;;;;;;;12.40;11.30;;;;;;;;;;5095120;28;20386;-82
2024/03/19 03:04:07;;;;;;;13.15;12.15;;;;;;;;;;5095253;28;20382;-82
2024/03/19 03:06:33;;;;;;;12.88;11.77;;;;;;;;;;5094903;28;20388;-82
2024/03/19 03:08:59;;;;;;;14.05;12.75;;;;;;;;;;5094870;28;20423;-82
2024/03/19 03:11:25;;;;;;;14.45;13.15;;;;;;;;;;5095608;28;20478;-82
2024/03/19 03:13:51;;;;;;;14.77;13.48;;;;;;;;;;5095152;28;20379;-82
2024/03/19 03:16:17;;;;;;;14.23;13.13;;;;;;;;;;5094911;28;20378;-82
2024/03/19 03:18:44;;;;;;;14.70;13.50;;;;;;;;;;5094732;28;20393;-82
2024/03/19 03:21:10;;;;;;;14.43;13.23;;;;;;;;;;5095553;28;20374;-82
2024/03/19 03:23:36;;;;;;;13.55;12.45;;;;;;;;;;5095185;28;20401;-82
2024/03/19 03:26:02;;;;;;;12.90;11.90;;;;;;;;;;5094835;28;20385;-82
2024/03/19 03:28:28;;;;;;;12.40;11.40;;;;;;;;;;5105107;28;20384;-82
2024/03/19 03:30:54;;;;;;;13.88;12.70;;;;;;;;;;5098663;28;20418;-82
2024/03/19 03:33:22;;;;;;;12.70;11.67;;;;;;;;;;5108819;28;20432;-82
2024/03/19 03:35:48;;;;;;;13.25;12.23;;;;;;;;;;5094996;28;20369;-82
2024/03/19 03:38:14;;;;;;;14.40;13.20;;;;;;;;;;5094806;28;20856;-82
2024/03/19 03:40:40;;;;;;;15.23;13.93;;;;;;;;;;5094929;28;20378;-82
2024/03/19 03:43:06;;;;;;;14.33;12.93;;;;;;;;;;5094511;28;20499;-82
2024/03/19 03:45:32;;;;;;;16.20;14.63;;;;;;;;;;5095061;28;20382;-82
2024/03/19 03:47:58;;;;;;;15.95;14.57;;;;;;;;;;5095139;28;20378;-82
2024/03/19 03:50:24;;;;;;;15.77;14.27;;;;;;;;;;5094660;28;20783;-82
2024/03/19 03:52:50;;;;;;;14.93;13.63;;;;;;;;;;5095111;28;20385;-82
2024/03/19 03:55:16;;;;;;;15.20;13.60;;;;;;;;;;5095081;28;20378;-82
2024/03/19 03:57:42;;;;;;;15.10;13.70;;;;;;;;;;5094773;28;20431;-82
2024/03/19 04:00:09;;;;;;;14.23;12.83;;;;;;;;;;5094567;28;20378;-82
2024/03/19 04:02:41;;;;;;;14.65;13.35;;;;;;;;;;5094754;28;20370;-82
2024/03/19 04:05:07;;;;;;;13.57;12.48;;;;;;;;;;5094382;28;20385;-82
2024/03/19 04:07:39;;;;;;;14.45;13.15;;;;;;;;;;5094150;28;20878;-82
2024/03/19 04:10:05;;;;;;;13.52;12.43;;;;;;;;;;5094635;28;20378;-82
2024/03/19 04:12:32;;;;;;;13.60;12.50;;;;;;;;;;5094460;28;20398;-82
2024/03/19 04:14:58;;;;;;;16.00;14.60;;;;;;;;;;5094057;28;20909;-82
2024/03/19 04:17:24;;;;;;;15.32;13.93;;;;;;;;;;5094364;28;20405;-82
2024/03/19 04:19:50;;;;;;;15.45;14.13;;;;;;;;;;5094082;28;20854;-82
2024/03/19 04:22:16;;;;;;;20.20;18.30;;;;;;;;;;5094151;28;20443;-82
2024/03/19 04:24:42;;;;;;;13.18;12.07;;;;;;;;;;5094313;28;20403;-82
2024/03/19 04:27:08;;;;;;;12.52;11.43;;;;;;;;;;5095019;28;20389;-82
2024/03/19 04:29:35;;;;;;;12.55;11.55;;;;;;;;;;5093519;28;20848;-82
2024/03/19 04:32:04;;;;;;;12.27;11.27;;;;;;;;;;5100726;28;20416;-82
2024/03/19 04:34:30;;;;;;;11.93;11.00;;;;;;;;;;5100864;28;20393;-82
2024/03/19 04:36:56;;;;;;;12.47;11.37;;;;;;;;;;5094196;28;20382;-82
2024/03/19 04:39:22;;;;;;;12.43;11.40;;;;;;;;;;5093786;28;20409;-82
2024/03/19 04:41:48;;;;;;;11.18;10.18;;;;;;;;;;5094302;28;20385;-82
2024/03/19 04:44:14;;;;;;;11.77;10.77;;;;;;;;;;5094005;28;20386;-82
2024/03/19 04:46:40;;;;;;;12.85;11.70;;;;;;;;;;5095473;28;20443;-82
2024/03/19 04:49:06;;;;;;;14.00;12.70;;;;;;;;;;5106374;28;20420;-82
2024/03/19 04:51:32;;;;;;;13.13;11.93;;;;;;;;;;5093871;28;20877;-82
2024/03/19 04:53:58;;;;;;;13.73;12.43;;;;;;;;;;5093631;28;20883;-82
2024/03/19 04:56:24;;;;;;;15.80;14.20;;;;;;;;;;5093818;28;20370;-82
2024/03/19 04:58:50;;;;;;;14.88;13.35;;;;;;;;;;5093703;28;20382;-82
2024/03/19 05:01:17;;;;;;;14.65;13.25;;;;;;;;;;5093455;28;20400;-82
2024/03/19 05:03:44;;;;;;;14.57;13.18;;;;;;;;;;5096100;28;20389;-81
2024/03/19 05:06:10;;;;;;;15.43;13.93;;;;;;;;;;5106299;28;20389;-81
2024/03/19 05:08:36;;;;;;;13.90;12.50;;;;;;;;;;5093565;28;20790;-81
2024/03/19 05:11:03;;;;;;;13.63;12.43;;;;;;;;;;5093832;28;20913;-81
2024/03/19 05:13:29;;;;;;;13.45;12.25;;;;;;;;;;5093833;28;20388;-81
2024/03/19 05:15:55;;;;;;;13.55;12.35;;;;;;;;;;5093617;28;20887;-81
2024/03/19 05:18:21;;;;;;;12.50;11.38;;;;;;;;;;5095941;28;20403;-81
2024/03/19 05:20:48;;;;;;;13.73;12.43;;;;;;;;;;5093707;28;20489;-81
2024/03/19 05:23:14;;;;;;;13.80;12.48;;;;;;;;;;5079689;28;20387;-81
2024/03/19 05:25:40;;;;;;;14.73;13.32;;;;;;;;;;5084153;28;20391;-81
2024/03/19 05:28:06;;;;;;;14.27;12.93;;;;;;;;;;5105658;28;20376;-81
2024/03/19 05:30:32;;;;;;;14.52;13.23;;;;;;;;;;5084006;28;22385;-81
2024/03/19 05:32:58;;;;;;;14.00;12.65;;;;;;;;;;5115784;28;20380;-80
2024/03/19 05:35:25;;;;;;;14.35;12.95;;;;;;;;;;5104420;28;20762;-81
2024/03/19 05:37:52;;;;;;;14.15;12.95;;;;;;;;;;5104462;28;20728;-81
2024/03/19 05:40:18;;;;;;;12.70;11.60;;;;;;;;;;5079289;28;20794;-81
2024/03/19 05:42:44;;;;;;;13.23;12.02;;;;;;;;;;5108849;28;20407;-81
2024/03/19 05:45:11;;;;;;;13.32;12.02;;;;;;;;;;5099623;28;20405;-81
2024/03/19 05:47:37;;;;;;;13.32;12.02;;;;;;;;;;5097452;28;20389;-81
2024/03/19 05:50:03;;;;;;;14.20;12.70;;;;;;;;;;5096651;28;20386;-81
2024/03/19 05:52:29;;;;;;;14.57;13.02;;;;;;;;;;5096978;28;20406;-81
2024/03/19 05:54:55;;;;;;;13.55;12.15;;;;;;;;;;5096853;28;20420;-81
2024/03/19 05:57:21;;;;;;;13.88;12.57;;;;;;;;;;5097264;28;20375;-81
2024/03/19 05:59:47;;;;;;;12.68;11.43;;;;;;;;;;5097155;28;20373;-81
2024/03/19 06:02:14;;;;;;;12.77;11.57;;;;;;;;;;5097049;28;20397;-81
2024/03/19 06:04:40;;;;;;;12.45;11.15;;;;;;;;;;5097109;28;20459;-82
2024/03/19 06:07:06;;;;;;;12.18;11.07;;;;;;;;;;5097228;28;20390;-82
2024/03/19 06:09:32;;;;;;;13.25;11.90;;;;;;;;;;5097026;28;20466;-81
2024/03/19 06:11:58;;;;;;;14.13;12.20;;;;;;;;;;5096489;28;20413;-81
2024/03/19 06:14:24;;;;;;;13.27;11.97;;;;;;;;;;5097266;28;20446;-82
2024/03/19 06:16:51;;;;;;;14.18;12.25;;;;;;;;;;5097262;28;20389;-82
2024/03/19 06:19:17;;;;;;;13.88;12.10;;;;;;;;;;5097125;28;20429;-81
2024/03/19 06:21:43;;;;;;;13.55;12.25;;;;;;;;;;5098013;28;20370;-81
2024/03/19 06:24:10;;;;;;;13.50;12.10;;;;;;;;;;5078756;28;20389;-81
2024/03/19 06:26:36;;;;;;;13.65;12.20;;;;;;;;;;5096726;28;20820;-81
2024/03/19 06:29:04;;;;;;;13.25;11.88;;;;;;;;;;5096636;28;20865;-81
2024/03/19 06:31:30;;;;;;;11.82;10.73;;;;;;;;;;5098432;28;20422;-81
2024/03/19 06:33:57;;;;;;;13.07;11.70;;;;;;;;;;5107618;28;20759;-81
2024/03/19 06:36:23;;;;;;;14.48;12.23;;;;;;;;;;5095068;28;20386;-81
2024/03/19 06:38:49;;;;;;;12.20;11.05;;;;;;;;;;5095653;28;20428;-81
2024/03/19 06:41:15;;;;;;;12.95;11.57;;;;;;;;;;5095465;28;20461;-81
2024/03/19 06:43:41;;;;;;;13.68;11.95;;;;;;;;;;5095699;28;20785;-81
2024/03/19 06:46:07;;;;;;;13.93;12.52;;;;;;;;;;5095238;28;20382;-81
2024/03/19 06:48:34;;;;;;;14.93;13.00;;;;;;;;;;5095652;28;20461;-81
2024/03/19 06:51:01;;;;;;;14.18;11.93;;;;;;;;;;5095887;28;20447;-81
2024/03/19 06:53:27;;;;;;;12.60;11.20;;;;;;;;;;5110022;28;20850;-81
2024/03/19 06:55:54;;;;;;;11.88;10.68;;;;;;;;;;5095531;28;20466;-81
2024/03/19 06:58:20;;;;;;;12.57;11.27;;;;;;;;;;5095571;28;20537;-81
2024/03/19 07:00:51;;;;;;;12.93;11.20;;;;;;;;;;5095322;28;20406;-81
2024/03/19 07:03:18;;;;;;;12.18;10.93;;;;;;;;;;5095171;28;20916;-81
2024/03/19 07:05:45;;;;;;;13.65;11.88;;;;;;;;;;5094512;28;20378;-81
2024/03/19 07:08:12;;;;;;;16.33;12.60;;;;;;;;;;5095024;28;20450;-81
2024/03/19 07:10:38;;;;;;;15.27;12.43;;;;;;;;;;5094897;28;20406;-81
2024/03/19 07:13:04;;;;;;;13.80;11.57;;;;;;;;;;5095263;28;20894;-81
2024/03/19 07:15:30;;;;;;;13.20;11.80;;;;;;;;;;5095599;28;20371;-81
2024/03/19 07:17:56;;;;;;;14.60;11.98;;;;;;;;;;5094359;28;20832;-81
2024/03/19 07:20:24;;;;;;;12.93;11.27;;;;;;;;;;5095308;28;20370;-81
2024/03/19 07:22:50;;;;;;;12.98;11.63;;;;;;;;;;5095041;28;20377;-81
2024/03/19 07:25:16;;;;;;;12.48;10.95;;;;;;;;;;5094920;28;20370;-81
2024/03/19 07:27:42;;;;;;;12.43;10.90;;;;;;;;;;5094638;28;20459;-81
2024/03/19 07:30:09;;;;;;;13.05;10.63;;;;;;;;;;5094216;28;20776;-81
2024/03/19 07:32:36;;;;;;;13.27;11.02;;;;;;;;;;5110165;28;20392;-81
2024/03/19 07:35:03;;;;;;;12.23;10.10;;;;;;;;;;5097085;28;20394;-81
2024/03/19 07:37:29;;;;;;;11.07;9.57;;;;;;;;;;5094568;28;20473;-81
2024/03/19 07:39:56;;;;;;;10.00;9.00;;;;;;;;;;5094088;28;20470;-81
2024/03/19 07:42:22;;;;;;;14.10;11.27;;;;;;;;;;5094487;28;20393;-81
2024/03/19 07:44:48;;;;;;;12.07;10.88;;;;;;;;;;5095428;28;20481;-81
2024/03/19 07:47:14;;;;;;;12.55;10.98;;;;;;;;;;5090417;28;20429;-81
2024/03/19 07:49:40;;;;;;;12.02;10.80;;;;;;;;;;5094505;28;20389;-81
2024/03/19 07:52:07;;;;;;;11.95;10.70;;;;;;;;;;5094076;28;20488;-81
2024/03/19 07:54:33;;;;;;;9.75;8.85;;;;;;;;;;5094559;28;20424;-81
2024/03/19 07:56:59;;;;;;;10.55;9.50;;;;;;;;;;5093796;28;20713;-81
2024/03/19 07:59:25;;;;;;;13.15;11.70;;;;;;;;;;5093881;28;20374;-81
2024/03/19 08:01:51;;;;;;;14.55;11.93;;;;;;;;;;5094468;28;20374;-81
2024/03/19 08:04:17;;;;;;;12.15;10.85;;;;;;;;;;5094314;28;20370;-81
2024/03/19 08:06:44;;;;;;;12.07;10.48;;;;;;;;;;5093651;28;20382;-81
2024/03/19 08:09:10;;;;;;;12.23;10.90;;;;;;;;;;5094026;28;20375;-81
2024/03/19 08:11:36;;;;;;;12.37;11.17;;;;;;;;;;5094224;28;20404;-81
2024/03/19 08:14:02;;;;;;;11.20;10.07;;;;;;;;;;5096662;28;20471;-81
2024/03/19 08:16:28;;;;;;;10.07;9.05;;;;;;;;;;5105415;28;20407;-81
2024/03/19 08:18:54;;;;;;;18.23;11.35;;;;;;;;;;5093562;28;20401;-81
2024/03/19 08:21:24;;;;;;;10.97;9.00;;;;;;;;;;5093226;28;20535;-81
2024/03/19 08:23:50;;;;;;;10.73;9.63;;;;;;;;;;5093613;28;20447;-81
2024/03/19 08:26:16;;;;;;;9.35;8.45;;;;;;;;;;5093241;28;20393;-81
2024/03/19 08:28:42;;;;;;;9.32;8.35;;;;;;;;;;5093766;28;20397;-81
2024/03/19 08:31:11;;;;;;;11.13;9.90;;;;;;;;;;5093183;28;20896;-81
2024/03/19 08:33:37;;;;;;;10.70;9.60;;;;;;;;;;5079303;28;20433;-80
2024/03/19 08:36:04;;;;;;;9.90;8.90;;;;;;;;;;5093674;28;20451;-81
2024/03/19 08:38:31;;;;;;;7.90;7.20;;;;;;;;;;5092813;28;20720;-81
2024/03/19 08:40:57;;;;;;;7.95;7.15;;;;;;;;;;5093358;28;20870;-81
2024/03/19 08:43:24;;;;;;;7.85;7.15;;;;;;;;;;5093856;28;20390;-81
2024/03/19 08:45:50;;;;;;;10.48;9.30;;;;;;;;;;5093562;28;20378;-81
2024/03/19 08:48:16;;;;;;;10.45;9.35;;;;;;;;;;5093686;28;20405;-81
2024/03/19 08:50:42;;;;;;;11.23;10.02;;;;;;;;;;5093422;28;20402;-81
2024/03/19 08:53:08;;;;;;;10.07;8.98;;;;;;;;;;5095836;28;20377;-81
2024/03/19 08:55:36;;;;;;;10.70;9.68;;;;;;;;;;5096783;28;20406;-81
2024/03/19 08:58:02;;;;;;;11.07;9.43;;;;;;;;;;5097223;28;20386;-81
2024/03/19 09:00:28;;;;;;;14.63;9.73;;;;;;;;;;5097284;28;20791;-81
2024/03/19 09:02:54;;;;;;;33.47;12.10;;;;;;;;;;5097288;28;20389;-81
2024/03/19 09:05:20;;;;;;;8.80;7.88;;;;;;;;;;5097676;28;20401;-81
2024/03/19 09:07:46;;;;;;;9.38;8.48;;;;;;;;;;5097526;28;20370;-81
2024/03/19 09:10:12;;;;;;;26.30;12.23;;;;;;;;;;5097806;28;20697;-81
2024/03/19 09:12:38;;;;;;;11.65;10.45;;;;;;;;;;5097764;28;20397;-81
2024/03/19 09:15:07;;;;;;;12.73;10.68;;;;;;;;;;5097043;28;20378;-81
2024/03/19 09:17:33;;;;;;;11.90;10.43;;;;;;;;;;5097153;28;20374;-81
2024/03/19 09:20:00;;;;;;;10.52;9.50;;;;;;;;;;5096894;28;20726;-81
2024/03/19 09:22:25;;;;;;;10.60;9.50;;;;;;;;;;5097170;28;20382;-81
2024/03/19 09:24:52;;;;;;;10.52;9.43;;;;;;;;;;5097025;28;20388;-81
2024/03/19 09:27:18;;;;;;;9.95;8.95;;;;;;;;;;5097005;28;20395;-81
2024/03/19 09:29:44;;;;;;;10.40;9.30;;;;;;;;;;5097514;28;20389;-81
2024/03/19 09:32:10;;;;;;;10.20;9.20;;;;;;;;;;5105102;28;20416;-81
2024/03/19 09:34:36;;;;;;;9.50;8.52;;;;;;;;;;5102943;28;20366;-81
2024/03/19 09:37:02;;;;;;;10.07;8.82;;;;;;;;;;5097117;28;20836;-81
2024/03/19 09:39:28;;;;;;;10.48;9.20;;;;;;;;;;5096593;28;20378;-81
2024/03/19 09:42:08;;;;;;;11.13;9.68;;;;;;;;;;5096658;28;20890;-81
2024/03/19 09:44:34;;;;;;;10.68;9.32;;;;;;;;;;5096450;28;20397;-81
2024/03/19 09:47:00;;;;;;;12.18;9.93;;;;;;;;;;5096986;28;20474;-81
2024/03/19 09:49:34;;;;;;;10.55;9.38;;;;;;;;;;5096899;28;20381;-81
2024/03/19 09:52:07;;;;;;;10.63;9.50;;;;;;;;;;5096284;28;20402;-81
2024/03/19 09:54:33;;;;;;;10.63;9.53;;;;;;;;;;5096449;28;20707;-81
2024/03/19 09:56:59;;;;;;;9.07;8.18;;;;;;;;;;5096063;28;20413;-81
2024/03/19 09:59:26;;;;;;;9.75;8.77;;;;;;;;;;5096515;28;20374;-81
2024/03/19 10:01:56;;;;;;;8.88;8.07;;;;;;;;;;5096213;28;20378;-81
2024/03/19 10:04:22;;;;;;;10.15;9.00;;;;;;;;;;5092171;28;20523;-81
2024/03/19 10:06:48;;;;;;;10.23;8.75;;;;;;;;;;5089701;28;20378;-81
2024/03/19 10:09:18;;;;;;;9.15;8.23;;;;;;;;;;5092749;28;20387;-81
2024/03/19 10:11:48;;;;;;;9.60;8.60;;;;;;;;;;5088986;28;20415;-81
2024/03/19 10:14:14;;;;;;;8.77;7.87;;;;;;;;;;5090552;28;20817;-81
2024/03/19 10:16:41;;;;;;;10.27;8.55;;;;;;;;;;5107131;28;20374;-81
2024/03/19 10:19:07;;;;;;;11.00;8.55;;;;;;;;;;5095550;28;20772;-81
2024/03/19 10:21:34;;;;;;;9.60;8.25;;;;;;;;;;5082484;28;20387;-81
2024/03/19 10:24:06;;;;;;;9.18;8.15;;;;;;;;;;5098630;28;20378;-81
2024/03/19 10:26:32;;;;;;;12.52;8.40;;;;;;;;;;5109142;28;20430;-81
2024/03/19 10:29:00;;;;;;;9.50;8.50;;;;;;;;;;5103466;28;20430;-81
2024/03/19 10:31:26;;;;;;;11.60;9.32;;;;;;;;;;5095817;28;20400;-81
2024/03/19 10:33:55;;;;;;;10.50;9.23;;;;;;;;;;5107627;28;20389;-81
2024/03/19 10:36:25;;;;;;;10.80;9.50;;;;;;;;;;5095113;28;20377;-81
2024/03/19 10:38:52;;;;;;;11.07;9.48;;;;;;;;;;5095653;28;20386;-81
2024/03/19 10:41:19;;;;;;;13.18;9.80;;;;;;;;;;5095387;28;20388;-81
2024/03/19 10:43:46;;;;;;;10.88;9.02;;;;;;;;;;5101343;28;20745;-81
2024/03/19 10:46:12;;;;;;;11.10;9.68;;;;;;;;;;5103610;28;20461;-81
2024/03/19 10:48:38;;;;;;;11.20;9.03;;;;;;;;;;5095227;28;20394;-81
2024/03/19 10:51:04;;;;;;;9.93;8.63;;;;;;;;;;5095123;28;20418;-81
2024/03/19 10:53:32;;;;;;;9.60;8.57;;;;;;;;;;5094609;28;20381;-82
2024/03/19 10:55:59;;;;;;;10.00;9.00;;;;;;;;;;5094750;28;20371;-82
2024/03/19 10:58:25;;;;;;;12.13;9.57;;;;;;;;;;5095387;28;20452;-82
2024/03/19 11:00:52;;;;;;;10.40;8.90;;;;;;;;;;5095548;28;20373;-82
2024/03/19 11:03:20;;;;;;;9.20;8.30;;;;;;;;;;5094941;28;20502;-82
2024/03/19 11:05:47;;;;;;;9.85;8.85;;;;;;;;;;5095087;28;20404;-82
2024/03/19 11:08:15;;;;;;;9.40;8.20;;;;;;;;;;5095124;28;20590;-82
2024/03/19 11:10:41;;;;;;;10.07;8.75;;;;;;;;;;5095015;28;20385;-81
2024/03/19 11:13:08;;;;;;;9.70;8.70;;;;;;;;;;5094874;28;20378;-82
2024/03/19 11:15:35;;;;;;;12.27;9.63;;;;;;;;;;5094562;28;20883;-82
2024/03/19 11:18:05;;;;;;;9.90;8.65;;;;;;;;;;5095651;28;20410;-82
2024/03/19 11:20:31;;;;;;;9.00;8.07;;;;;;;;;;5094748;28;20379;-82
2024/03/19 11:22:59;;;;;;;9.43;8.43;;;;;;;;;;5095300;28;20374;-82
2024/03/19 11:25:27;;;;;;;9.75;7.93;;;;;;;;;;5095202;28;20374;-82
2024/03/19 11:27:55;;;;;;;8.60;7.70;;;;;;;;;;5094423;28;20450;-82
2024/03/19 11:30:21;;;;;;;9.35;8.05;;;;;;;;;;5095454;28;20414;-82
2024/03/19 11:32:51;;;;;;;7.95;7.15;;;;;;;;;;5108898;28;20436;-82
2024/03/19 11:35:18;;;;;;;9.45;8.45;;;;;;;;;;5095206;28;20376;-83
2024/03/19 11:37:46;;;;;;;9.82;8.75;;;;;;;;;;5095073;28;20390;-83
2024/03/19 11:40:12;;;;;;;9.45;8.20;;;;;;;;;;5095340;28;20427;-82
2024/03/19 11:42:38;;;;;;;8.93;8.00;;;;;;;;;;5095651;28;20843;-83
2024/03/19 11:45:05;;;;;;;8.40;7.50;;;;;;;;;;5095846;28;20436;-82
2024/03/19 11:47:31;;;;;;;6.85;6.15;;;;;;;;;;5103191;28;20381;-83
2024/03/19 11:49:57;;;;;;;6.53;5.60;;;;;;;;;;5099411;28;20408;-82
2024/03/19 11:52:23;;;;;;;5.77;5.20;;;;;;;;;;5094314;28;20409;-82
2024/03/19 11:54:49;;;;;;;6.20;5.60;;;;;;;;;;5094702;28;20370;-83
2024/03/19 11:57:16;;;;;;;5.10;4.60;;;;;;;;;;5113452;28;20877;-83
2024/03/19 11:59:42;;;;;;;6.30;5.70;;;;;;;;;;5101947;28;20432;-83
2024/03/19 12:02:10;;;;;;;6.00;5.40;;;;;;;;;;5093752;28;20382;-82
2024/03/19 12:04:38;;;;;;;5.82;5.22;;;;;;;;;;5094800;28;20416;-83
2024/03/19 12:07:05;;;;;;;5.13;4.50;;;;;;;;;;5094679;28;20417;-82
2024/03/19 12:09:31;;;;;;;5.07;4.60;;;;;;;;;;5102983;28;20394;-82
2024/03/19 12:11:57;;;;;;;4.65;4.22;;;;;;;;;;5100441;28;20444;-82
2024/03/19 12:14:24;;;;;;;4.78;4.38;;;;;;;;;;5093869;28;20381;-83
2024/03/19 12:16:50;;;;;;;4.30;3.90;;;;;;;;;;5094190;28;20469;-83
2024/03/19 12:19:19;;;;;;;4.43;4.03;;;;;;;;;;5085625;28;20769;-83
2024/03/19 12:21:46;;;;;;;4.00;3.60;;;;;;;;;;5094697;28;20374;-85
2024/03/19 12:24:12;;;;;;;4.63;4.15;;;;;;;;;;5094106;28;20435;-83
2024/03/19 12:26:43;;;;;;;4.27;3.87;;;;;;;;;;5094860;28;20414;-83
2024/03/19 12:29:16;;;;;;;3.80;3.33;;;;;;;;;;5094746;28;20366;-83
2024/03/19 12:31:49;;;;;;;3.40;3.10;;;;;;;;;;5098720;28;20424;-83
2024/03/19 12:37:18;;;;;;;3.35;3.05;;;;;;;;;;5070177;28;20374;-82
2024/03/19 12:39:46;;;;;;;3.53;2.80;;;;;;;;;;5092642;28;20384;-82
2024/03/19 12:42:14;;;;;;;3.17;2.88;;;;;;;;;;5093796;28;20510;-83
2024/03/19 12:44:42;;;;;;;2.35;2.15;;;;;;;;;;5094175;28;20380;-83
2024/03/19 12:47:10;;;;;;;2.40;2.20;;;;;;;;;;5094055;28;20928;-83
2024/03/19 12:49:39;;;;;;;2.60;2.30;;;;;;;;;;5092017;28;20441;-82
2024/03/19 12:52:05;;;;;;;2.95;2.60;;;;;;;;;;5093620;28;20397;-82
2024/03/19 12:54:31;;;;;;;2.67;2.33;;;;;;;;;;5095309;28;20449;-84
2024/03/19 12:56:57;;;;;;;3.72;2.30;;;;;;;;;;5094779;28;20386;-82
2024/03/19 12:59:23;;;;;;;2.70;2.25;;;;;;;;;;5076065;28;20385;-84
2024/03/19 13:01:49;;;;;;;2.78;2.55;;;;;;;;;;5094396;28;20385;-83
2024/03/19 13:04:15;;;;;;;2.30;2.10;;;;;;;;;;5094484;28;20386;-83
2024/03/19 13:06:41;;;;;;;2.80;2.20;;;;;;;;;;5093781;28;20435;-83
2024/03/19 13:09:08;;;;;;;3.15;2.20;;;;;;;;;;5094010;28;20774;-83
2024/03/19 13:11:34;;;;;;;2.40;1.90;;;;;;;;;;5094050;28;20409;-83
2024/03/19 13:14:00;;;;;;;3.75;1.70;;;;;;;;;;5093697;28;20457;-83
2024/03/19 13:16:26;;;;;;;1.70;1.20;;;;;;;;;;5094229;28;20402;-83
2024/03/19 13:18:52;;;;;;;1.65;1.50;;;;;;;;;;5093627;28;20920;-83
2024/03/19 13:21:18;;;;;;;1.63;1.17;;;;;;;;;;5094108;28;20370;-83
2024/03/19 13:23:47;;;;;;;1.83;1.40;;;;;;;;;;5093870;28;20389;-83
2024/03/19 13:26:13;;;;;;;1.35;1.25;;;;;;;;;;5094236;28;20712;-83
2024/03/19 13:28:39;;;;;;;1.75;1.23;;;;;;;;;;5093552;28;20744;-83
2024/03/19 13:31:05;;;;;;;1.48;1.13;;;;;;;;;;5094033;28;20414;-83
2024/03/19 13:33:32;;;;;;;2.28;1.10;;;;;;;;;;5108119;28;20370;-83
2024/03/19 13:35:58;;;;;;;1.03;0.90;;;;;;;;;;5093291;28;20457;-83
2024/03/19 13:38:24;;;;;;;4.68;2.15;;;;;;;;;;5094420;28;20799;-83
2024/03/19 13:40:51;;;;;;;2.80;1.48;;;;;;;;;;5097645;28;20410;-83
2024/03/19 13:43:17;;;;;;;1.30;1.10;;;;;;;;;;5097803;28;20404;-83
2024/03/19 13:45:43;;;;;;;4.30;1.50;;;;;;;;;;5097962;28;20430;-83
2024/03/19 13:48:09;;;;;;;1.50;1.40;;;;;;;;;;5098354;28;20374;-83
2024/03/19 13:50:35;;;;;;;1.50;1.27;;;;;;;;;;5097218;28;20386;-84
2024/03/19 13:53:01;;;;;;;2.95;1.40;;;;;;;;;;5097260;28;20378;-83
2024/03/19 13:55:31;;;;;;;1.70;1.10;;;;;;;;;;5097164;28;20382;-83
2024/03/19 13:57:57;;;;;;;3.30;2.72;;;;;;;;;;5097529;28;20370;-83
2024/03/19 14:00:24;;;;;;;3.17;2.65;;;;;;;;;;5097888;28;20386;-83
2024/03/19 14:02:53;;;;;;;5.38;4.22;;;;;;;;;;5106784;28;20372;-83
2024/03/19 14:05:19;;;;;;;3.97;3.28;;;;;;;;;;5103135;28;20473;-83
2024/03/19 14:07:45;;;;;;;2.03;1.83;;;;;;;;;;5106602;28;20381;-83
2024/03/19 14:10:11;;;;;;;1.50;1.10;;;;;;;;;;5101938;28;20443;-83
2024/03/19 14:12:38;;;;;;;0.90;0.80;;;;;;;;;;5101878;28;20435;-82
2024/03/19 14:15:04;;;;;;;2.03;0.90;;;;;;;;;;5103448;28;20420;-83
2024/03/19 14:17:30;;;;;;;1.60;0.70;;;;;;;;;;5095976;28;20385;-83
2024/03/19 14:19:56;;;;;;;0.98;0.57;;;;;;;;;;5106295;28;20373;-83
2024/03/19 14:22:22;;;;;;;0.80;0.70;;;;;;;;;;5107937;28;20471;-83
2024/03/19 14:24:49;;;;;;;1.40;0.40;;;;;;;;;;5096478;28;20386;-81
2024/03/19 14:27:15;;;;;;;1.20;0.60;;;;;;;;;;5096108;28;20416;-81